Terminal Aerodrome Forecast
Issued by NWS

Home | Current Version | Previous Version | Text Only | Print | Product List | Glossary On
Versions: 1 2 3 4 5 6 7 8 9 10 11 12 13 14 15 16 17 18 19 20 21 22 23 24 25 26 27 28 29 30
000
FTUS41 KBUF 180500
TAFJHW
TAF
KJHW 180523Z 1806/1906 27012KT P6SM BKN025 OVC030
     FM181500 28013KT 5SM -SHSN OVC012
     FM190000 28009KT 6SM -SHSN OVC012
     FM190100 28007KT P6SM OVC012
     FM190200 29006KT P6SM VCSH OVC012
      AMD LTD TO CLD VIS AND WIND=

USA.gov is the U.S. government's official web portal to all federal, state and local government web resources and services.